Weather observations for the past three days for
Kosrae Island - Kosrae Airport
Imperial (Metric)
Date Time (+11) Wind (mph) Vis. (mi.) Weather Sky Cond. Temperature (ºF) Relative Humidity Wind Chill (°F) Heat Index (°F) Pressure Precipitation (in)
Air Dwpt 6 hour altimeter (in) sea level (mb) 1 hr 3 hr 6 hr
Max. Min.
04 17:58 E 7 10.00 Overcast BKN015TCU BKN130 OVC300 84.2 77 79% 94 29.71 0.0
04 16:50 E 7 10.00 Showers in Vicinity BKN014TCU BKN130 OVC300 86 78.8 79% 99 29.7 0.0
04 15:56 E 7 10.00 Mostly Cloudy BKN016TCU BKN130 BKN300 84.2 77 79% 94 29.7 0.0
04 14:50 E 8 10.00 Showers in Vicinity BKN016TCU BKN130 BKN300 87.8 77 70% 100 29.71 0.0
04 13:50 E 9 10.00 Mostly Cloudy BKN019TCU BKN130 BKN300 86 77 75% 97 29.71 0.0
04 12:50 E 12 10.00 Mostly Cloudy BKN018TCU BKN130 BKN300 87.8 77 70% 100 29.72 0.0
04 11:50 NE 9 10.00 Mostly Cloudy BKN018TCU BKN130 BKN300 87.8 77 70% 100 29.76 0.0
04 10:50 NE 10 10.00 Showers in Vicinity BKN015TCU BKN130 OVC300 87.8 77 70% 100 29.77 0.0
04 09:50 NE 9 10.00 Mostly Cloudy BKN016TCU BKN130 BKN300 86 78.8 79% 99 29.77 0.0
04 08:50 NE 13 10.00 Mostly Cloudy BKN017 BKN130 BKN300 86 78.8 79% 99 29.77 0.0
03 09:51 NE 8 10.00 Mostly Cloudy SCT019TCU BKN130 BKN300 86 77 75% 97 29.81 0.0
03 08:53 NE 8 10.00 Mostly Cloudy BKN018TCU BKN130 BKN300 84.2 77 79% 94 29.81 0.0
03 07:50 NE 7 10.00 Mostly Cloudy BKN018TCU BKN130 BKN300 82.4 77 84% 91 29.79 0.0
02 17:50 N 5 10.00 Overcast SCT017 BKN130 OVC300 84.2 77 79% 94 29.75 0.0
02 16:50 NW 6 10.00 Mostly Cloudy SCT016 BKN130 BKN300 84.2 77 79% 94 29.73 0.0
02 15:50 Vrbl 3 10.00 Mostly Cloudy SCT016 BKN130 BKN300 84.2 77 79% 94 29.73 0.0
02 14:50 Vrbl 3 10.00 Mostly Cloudy BKN018 BKN130 BKN300 82.4 75.2 79% 89 29.73 0.0
02 13:50 Vrbl 3 10.00 Mostly Cloudy BKN018 BKN130 BKN300 82.4 75.2 79% 89 29.74 0.0
02 12:50 Vrbl 2 10.00 Light Showers Rain BKN016TCU BKN130 BKN300 80.6 75.2 84% 86 29.78 0.0
02 11:50 S 6 10.00 Light Showers Rain BKN016TCU BKN130 BKN300 80.6 75.2 84% 86 29.8 0.0
02 10:50 NE 9 10.00 Mostly Cloudy BKN018TCU BKN130 BKN300 82.4 73.4 74% 88 29.81 0.0
02 09:57 Vrbl 3 10.00 Mostly Cloudy BKN016 BKN130 BKN300 82.4 78.8 89% 92 29.82 0.0
Date Time (+11) Wind (mph) Vis. (mi.) Weather Sky Cond. Air Dwpt Max. Min. Relative Humidity Wind Chill (°F) Heat Index (°F) altimeter (in) sea level (mb) 1 hr 3 hr 6 hr
6 hour
Temperature (ºF) Pressure Precipitation (in)